Time;durP1;ratioP1;P1;durP2;ratioP2;P2;SDS_P1;SDS_P2;PMS_P1;PMS_P2;Temp;Humidity;BMP_temperature;BMP_pressure;BME280_temperature;BME280_humidity;BME280_pressure;Samples;Min_cycle;Max_cycle;Signal;HPM_P1;HPM_P2
2023/04/29 00:00:21;;;;;;;45.60;17.60;;;;;;;-128.00;-1.00;-1.00;97979;294;1003063;-33
2023/04/29 00:02:47;;;;;;;33.40;11.70;;;;;;;-128.00;-1.00;-1.00;97933;294;1003458;-29
2023/04/29 00:05:13;;;;;;;18.20;10.10;;;;;;;-128.00;-1.00;-1.00;97883;294;1003195;-33
2023/04/29 00:07:38;;;;;;;18.20;7.10;;;;;;;-128.00;-1.00;-1.00;97886;294;1003079;-29
2023/04/29 00:10:05;;;;;;;11.40;6.30;;;;;;;-128.00;-1.00;-1.00;97906;294;1003449;-28
2023/04/29 00:12:32;;;;;;;17.20;7.80;;;;;;;-128.00;-1.00;-1.00;97906;294;1003911;-33
2023/04/29 00:14:58;;;;;;;14.60;8.70;;;;;;;-128.00;-1.00;-1.00;98057;294;1004062;-29
2023/04/29 00:17:24;;;;;;;16.70;7.60;;;;;;;-128.00;-1.00;-1.00;97821;294;1003548;-28
2023/04/29 00:19:49;;;;;;;13.30;6.50;;;;;;;-128.00;-1.00;-1.00;97818;294;1003020;-29
2023/04/29 00:22:15;;;;;;;16.10;7.80;;;;;;;-128.00;-1.00;-1.00;98105;294;1002969;-28
2023/04/29 00:24:40;;;;;;;14.00;7.10;;;;;;;-128.00;-1.00;-1.00;97923;294;1003117;-34
2023/04/29 00:27:06;;;;;;;13.90;8.40;;;;;;;-128.00;-1.00;-1.00;98013;294;1004847;-30
2023/04/29 00:29:31;;;;;;;10.50;6.30;;;;;;;-128.00;-1.00;-1.00;97970;294;1003046;-28
2023/04/29 00:31:57;;;;;;;13.00;6.50;;;;;;;-128.00;-1.00;-1.00;97965;294;1003190;-32
2023/04/29 00:34:23;;;;;;;14.40;6.10;;;;;;;-128.00;-1.00;-1.00;98065;294;1005289;-30
2023/04/29 00:36:49;;;;;;;29.00;5.90;;;;;;;-128.00;-1.00;-1.00;97974;294;1003628;-30
2023/04/29 00:39:15;;;;;;;12.10;8.30;;;;;;;-128.00;-1.00;-1.00;97981;294;1002804;-29
2023/04/29 00:41:41;;;;;;;14.70;6.50;;;;;;;-128.00;-1.00;-1.00;97894;294;1003411;-30
2023/04/29 00:44:07;;;;;;;9.20;5.80;;;;;;;-128.00;-1.00;-1.00;98050;294;1002997;-28
2023/04/29 00:46:32;;;;;;;10.60;5.50;;;;;;;-128.00;-1.00;-1.00;97841;282;1003593;-33
2023/04/29 00:48:59;;;;;;;6.80;4.60;;;;;;;-128.00;-1.00;-1.00;98017;287;1003418;-33
2023/04/29 00:51:25;;;;;;;6.70;4.40;;;;;;;-128.00;-1.00;-1.00;97925;294;1004000;-27
2023/04/29 00:53:50;;;;;;;6.60;4.90;;;;;;;-128.00;-1.00;-1.00;97975;294;1005130;-30
2023/04/29 00:56:16;;;;;;;9.90;5.80;;;;;;;-128.00;-1.00;-1.00;98032;294;1003635;-32
2023/04/29 00:58:48;;;;;;;6.40;4.80;;;;;;;-128.00;-1.00;-1.00;97998;294;1003227;-29
2023/04/29 01:01:15;;;;;;;9.10;3.90;;;;;;;-128.00;-1.00;-1.00;98012;294;1002681;-32
2023/04/29 01:03:41;;;;;;;5.80;4.80;;;;;;;-128.00;-1.00;-1.00;97915;294;1003636;-32
2023/04/29 01:06:24;;;;;;;14.90;5.90;;;;;;;-128.00;-1.00;-1.00;97917;294;1003024;-28
2023/04/29 01:09:06;;;;;;;11.70;7.40;;;;;;;-128.00;-1.00;-1.00;97950;294;1003053;-32
2023/04/29 01:11:37;;;;;;;26.20;12.70;;;;;;;-128.00;-1.00;-1.00;97918;294;1005048;-28
2023/04/29 01:14:03;;;;;;;15.40;8.30;;;;;;;-128.00;-1.00;-1.00;97938;294;1005027;-32
2023/04/29 01:16:34;;;;;;;12.80;6.10;;;;;;;-128.00;-1.00;-1.00;97876;294;1003323;-32
2023/04/29 01:19:01;;;;;;;11.00;7.10;;;;;;;-128.00;-1.00;-1.00;98073;294;1004205;-28
2023/04/29 01:21:30;;;;;;;9.30;6.50;;;;;;;-128.00;-1.00;-1.00;97894;294;1002747;-32
2023/04/29 01:23:56;;;;;;;6.90;5.20;;;;;;;-128.00;-1.00;-1.00;97976;294;1004365;-30
2023/04/29 01:26:23;;;;;;;21.00;6.10;;;;;;;-128.00;-1.00;-1.00;98002;294;1003184;-32
2023/04/29 01:28:55;;;;;;;32.50;6.80;;;;;;;-128.00;-1.00;-1.00;98041;294;1004001;-29
2023/04/29 01:31:29;;;;;;;8.20;6.40;;;;;;;-128.00;-1.00;-1.00;97899;294;1003857;-34
2023/04/29 01:34:00;;;;;;;;;;;;;;;-128.00;-1.00;-1.00;98011;294;1005403;-29
2023/04/29 01:36:42;;;;;;;6.40;5.20;;;;;;;-128.00;-1.00;-1.00;97871;295;1002750;-30
2023/04/29 01:39:17;;;;;;;6.90;3.60;;;;;;;-128.00;-1.00;-1.00;98039;283;1004090;-30
2023/04/29 01:41:44;;;;;;;16.90;6.20;;;;;;;-128.00;-1.00;-1.00;98102;294;1002713;-34
2023/04/29 01:44:15;;;;;;;7.60;5.30;;;;;;;-128.00;-1.00;-1.00;98080;294;1004376;-29
2023/04/29 01:46:42;;;;;;;7.80;4.50;;;;;;;-128.00;-1.00;-1.00;97848;295;1003043;-30
2023/04/29 01:49:08;;;;;;;9.30;5.40;;;;;;;-128.00;-1.00;-1.00;98003;294;1003298;-29
2023/04/29 01:51:34;;;;;;;8.50;5.00;;;;;;;-128.00;-1.00;-1.00;97994;294;1003637;-33
2023/04/29 01:54:00;;;;;;;7.40;5.70;;;;;;;-128.00;-1.00;-1.00;97859;294;1004402;-30
2023/04/29 01:56:25;;;;;;;8.50;5.00;;;;;;;-128.00;-1.00;-1.00;97901;294;1003955;-33
2023/04/29 01:58:51;;;;;;;16.50;5.40;;;;;;;-128.00;-1.00;-1.00;97990;294;1003019;-28
2023/04/29 02:01:16;;;;;;;6.90;4.60;;;;;;;-128.00;-1.00;-1.00;97825;294;1002931;-29
2023/04/29 02:03:42;;;;;;;6.60;4.70;;;;;;;-128.00;-1.00;-1.00;97900;294;1003249;-33
2023/04/29 02:06:07;;;;;;;4.70;3.60;;;;;;;-128.00;-1.00;-1.00;97903;294;1002902;-35
2023/04/29 02:08:33;;;;;;;7.30;4.20;;;;;;;-128.00;-1.00;-1.00;97924;295;1003892;-35
2023/04/29 02:10:59;;;;;;;6.30;4.80;;;;;;;-128.00;-1.00;-1.00;98000;294;1003340;-35
2023/04/29 02:13:25;;;;;;;7.20;4.10;;;;;;;-128.00;-1.00;-1.00;98077;294;1003108;-31
2023/04/29 02:15:51;;;;;;;7.40;3.90;;;;;;;-128.00;-1.00;-1.00;97966;294;1003245;-31
2023/04/29 02:18:16;;;;;;;5.40;4.00;;;;;;;-128.00;-1.00;-1.00;97899;295;1003866;-35
2023/04/29 02:20:42;;;;;;;10.40;5.40;;;;;;;-128.00;-1.00;-1.00;97949;294;1003076;-36
2023/04/29 02:23:10;;;;;;;13.40;5.10;;;;;;;-128.00;-1.00;-1.00;97950;294;1003415;-34
2023/04/29 02:25:37;;;;;;;8.00;5.00;;;;;;;-128.00;-1.00;-1.00;97956;294;1003640;-34
2023/04/29 02:28:02;;;;;;;10.20;5.30;;;;;;;-128.00;-1.00;-1.00;97922;294;1004201;-33
2023/04/29 02:30:29;;;;;;;8.60;4.80;;;;;;;-128.00;-1.00;-1.00;98018;294;1003533;-29
2023/04/29 02:32:54;;;;;;;9.80;4.70;;;;;;;-128.00;-1.00;-1.00;97951;294;1004076;-30
2023/04/29 02:35:20;;;;;;;4.50;3.30;;;;;;;-128.00;-1.00;-1.00;97958;294;1003553;-29
2023/04/29 02:37:46;;;;;;;5.40;3.90;;;;;;;-128.00;-1.00;-1.00;97926;294;1003197;-33
2023/04/29 02:40:12;;;;;;;6.80;5.10;;;;;;;-128.00;-1.00;-1.00;98047;294;1004492;-33
2023/04/29 02:42:38;;;;;;;7.50;4.70;;;;;;;-128.00;-1.00;-1.00;97832;294;1005495;-28
2023/04/29 02:45:04;;;;;;;5.50;4.40;;;;;;;-128.00;-1.00;-1.00;97867;294;1003428;-28
2023/04/29 02:47:29;;;;;;;8.20;5.20;;;;;;;-128.00;-1.00;-1.00;98087;294;1003235;-30
2023/04/29 02:49:55;;;;;;;6.40;4.90;;;;;;;-128.00;-1.00;-1.00;97971;294;1003032;-29
2023/04/29 02:52:21;;;;;;;10.80;5.20;;;;;;;-128.00;-1.00;-1.00;98012;294;1003963;-31
2023/04/29 02:54:46;;;;;;;20.50;5.80;;;;;;;-128.00;-1.00;-1.00;97933;294;1003551;-33
2023/04/29 02:57:12;;;;;;;9.40;5.00;;;;;;;-128.00;-1.00;-1.00;97923;294;1003053;-29
2023/04/29 02:59:37;;;;;;;8.40;5.20;;;;;;;-128.00;-1.00;-1.00;97765;294;1003166;-29
2023/04/29 03:02:03;;;;;;;11.70;6.90;;;;;;;-128.00;-1.00;-1.00;97915;294;1003260;-33
2023/04/29 03:04:29;;;;;;;8.20;4.30;;;;;;;-128.00;-1.00;-1.00;97901;294;1003484;-33
2023/04/29 03:06:58;;;;;;;9.70;5.00;;;;;;;-128.00;-1.00;-1.00;97885;294;1004107;-33
2023/04/29 03:09:24;;;;;;;11.10;5.80;;;;;;;-128.00;-1.00;-1.00;97835;294;1002438;-29
2023/04/29 03:11:49;;;;;;;17.80;7.20;;;;;;;-128.00;-1.00;-1.00;97943;294;1003761;-33
2023/04/29 03:14:15;;;;;;;18.30;9.20;;;;;;;-128.00;-1.00;-1.00;97914;294;1003026;-29
2023/04/29 03:16:41;;;;;;;11.70;6.90;;;;;;;-128.00;-1.00;-1.00;97811;295;1002912;-30
2023/04/29 03:19:07;;;;;;;12.30;6.80;;;;;;;-128.00;-1.00;-1.00;98061;294;1003225;-32
2023/04/29 03:21:32;;;;;;;8.90;6.00;;;;;;;-128.00;-1.00;-1.00;97831;294;1004016;-32
2023/04/29 03:23:58;;;;;;;10.10;7.00;;;;;;;-128.00;-1.00;-1.00;98099;294;1002918;-28
2023/04/29 03:26:24;;;;;;;7.90;4.50;;;;;;;-128.00;-1.00;-1.00;98056;294;1005193;-29
2023/04/29 03:28:50;;;;;;;12.10;6.30;;;;;;;-128.00;-1.00;-1.00;97839;283;1002933;-28
2023/04/29 03:31:16;;;;;;;18.20;7.60;;;;;;;-128.00;-1.00;-1.00;97968;296;1003025;-30
2023/04/29 03:33:42;;;;;;;8.50;5.40;;;;;;;-128.00;-1.00;-1.00;98037;295;1003282;-34
2023/04/29 03:36:08;;;;;;;7.40;5.40;;;;;;;-128.00;-1.00;-1.00;97941;294;1003011;-33
2023/04/29 03:38:34;;;;;;;14.00;6.30;;;;;;;-128.00;-1.00;-1.00;97866;294;1003895;-29
2023/04/29 03:41:00;;;;;;;11.60;7.00;;;;;;;-128.00;-1.00;-1.00;97899;294;1004439;-30
2023/04/29 03:43:25;;;;;;;13.40;6.60;;;;;;;-128.00;-1.00;-1.00;97807;294;1003726;-28
2023/04/29 03:45:51;;;;;;;13.70;8.60;;;;;;;-128.00;-1.00;-1.00;97998;294;1004545;-36
2023/04/29 03:48:17;;;;;;;11.90;6.80;;;;;;;-128.00;-1.00;-1.00;97963;294;1003079;-32
2023/04/29 03:50:43;;;;;;;8.60;5.10;;;;;;;-128.00;-1.00;-1.00;97850;294;1003766;-28
2023/04/29 03:53:08;;;;;;;12.40;8.10;;;;;;;-128.00;-1.00;-1.00;97914;294;1003227;-32
2023/04/29 03:55:34;;;;;;;12.00;6.10;;;;;;;-128.00;-1.00;-1.00;97904;294;1004745;-35
2023/04/29 03:58:00;;;;;;;11.10;6.80;;;;;;;-128.00;-1.00;-1.00;97956;294;1004450;-29
2023/04/29 04:00:25;;;;;;;17.60;8.00;;;;;;;-128.00;-1.00;-1.00;97938;294;1003071;-31
2023/04/29 04:02:51;;;;;;;16.50;7.80;;;;;;;-128.00;-1.00;-1.00;98011;294;1004317;-30
2023/04/29 04:05:23;;;;;;;11.50;6.00;;;;;;;-128.00;-1.00;-1.00;98030;294;1003973;-29
2023/04/29 04:07:52;;;;;;;16.90;8.10;;;;;;;-128.00;-1.00;-1.00;97948;294;1003749;-32
2023/04/29 04:10:19;;;;;;;17.50;8.40;;;;;;;-128.00;-1.00;-1.00;98044;294;1003988;-28
2023/04/29 04:12:46;;;;;;;12.00;7.90;;;;;;;-128.00;-1.00;-1.00;97877;294;1003332;-30
2023/04/29 04:15:12;;;;;;;12.50;8.60;;;;;;;-128.00;-1.00;-1.00;97981;294;1003198;-28
2023/04/29 04:17:37;;;;;;;14.90;7.80;;;;;;;-128.00;-1.00;-1.00;98056;294;1002885;-32
2023/04/29 04:20:04;;;;;;;8.90;6.50;;;;;;;-128.00;-1.00;-1.00;98008;296;1005313;-28
2023/04/29 04:22:29;;;;;;;12.50;7.80;;;;;;;-128.00;-1.00;-1.00;97874;294;1003789;-29
2023/04/29 04:24:55;;;;;;;12.20;6.90;;;;;;;-128.00;-1.00;-1.00;97886;294;1003271;-32
2023/04/29 04:27:21;;;;;;;15.10;7.60;;;;;;;-128.00;-1.00;-1.00;97903;294;1003137;-28
2023/04/29 04:29:47;;;;;;;9.80;6.50;;;;;;;-128.00;-1.00;-1.00;98039;287;1004010;-30
2023/04/29 04:32:13;;;;;;;12.80;7.00;;;;;;;-128.00;-1.00;-1.00;97997;294;1002842;-29
2023/04/29 04:34:38;;;;;;;17.50;7.90;;;;;;;-128.00;-1.00;-1.00;97954;295;1004685;-34
2023/04/29 04:37:05;;;;;;;10.90;7.60;;;;;;;-128.00;-1.00;-1.00;97873;294;1003641;-30
2023/04/29 05:17:43;;;;;;;17.20;8.30;;;;;;;-100.75;14.96;19793.60;98347;294;1543923;-33
2023/04/29 05:20:10;;;;;;;8.80;5.60;;;;;;;-128.00;-1.00;-1.00;97665;295;1004399;-33
2023/04/29 05:22:36;;;;;;;13.70;6.30;;;;;;;-128.00;-1.00;-1.00;97906;296;1003720;-31
2023/04/29 05:25:02;;;;;;;13.30;7.30;;;;;;;-128.00;-1.00;-1.00;97141;294;1003090;-30
2023/04/29 05:27:28;;;;;;;9.20;6.00;;;;;;;-128.00;-1.00;-1.00;97921;294;1003133;-30
2023/04/29 05:29:54;;;;;;;12.00;6.40;;;;;;;-128.00;-1.00;-1.00;97874;294;1003323;-29
2023/04/29 05:32:20;;;;;;;10.90;7.10;;;;;;;-128.00;-1.00;-1.00;97864;294;1002664;-33
2023/04/29 05:34:45;;;;;;;14.00;6.70;;;;;;;-128.00;-1.00;-1.00;97870;294;1003283;-33
2023/04/29 05:37:11;;;;;;;10.60;6.00;;;;;;;-128.00;-1.00;-1.00;97917;294;1003908;-28
2023/04/29 05:39:36;;;;;;;11.30;6.50;;;;;;;-128.00;-1.00;-1.00;97882;282;1003448;-33
2023/04/29 05:42:02;;;;;;;22.10;6.90;;;;;;;-128.00;-1.00;-1.00;97806;294;1004235;-31
2023/04/29 05:44:28;;;;;;;14.40;6.90;;;;;;;-128.00;-1.00;-1.00;97863;294;1003882;-29
2023/04/29 05:46:53;;;;;;;11.70;6.70;;;;;;;-128.00;-1.00;-1.00;98036;295;1003701;-32
2023/04/29 05:49:19;;;;;;;8.10;5.70;;;;;;;-128.00;-1.00;-1.00;97993;294;1003186;-37
2023/04/29 05:51:45;;;;;;;9.70;5.60;;;;;;;-128.00;-1.00;-1.00;97987;294;1003985;-30
2023/04/29 05:54:10;;;;;;;7.20;5.80;;;;;;;-128.00;-1.00;-1.00;98057;294;1003185;-33
2023/04/29 05:56:36;;;;;;;7.60;4.50;;;;;;;-128.00;-1.00;-1.00;97936;294;1003081;-28
2023/04/29 05:59:02;;;;;;;9.00;6.60;;;;;;;-128.00;-1.00;-1.00;97871;294;1003722;-29
2023/04/29 06:01:27;;;;;;;10.90;6.90;;;;;;;-128.00;-1.00;-1.00;98024;294;1003796;-29
2023/04/29 06:03:53;;;;;;;10.10;5.50;;;;;;;-128.00;-1.00;-1.00;97899;294;1003402;-33
2023/04/29 06:06:18;;;;;;;11.40;6.50;;;;;;;-128.00;-1.00;-1.00;97898;294;1003183;-30
2023/04/29 06:08:44;;;;;;;15.20;7.10;;;;;;;-128.00;-1.00;-1.00;97813;296;1005705;-34
2023/04/29 06:11:09;;;;;;;10.60;7.10;;;;;;;-128.00;-1.00;-1.00;97823;297;1003338;-29
2023/04/29 06:13:35;;;;;;;17.10;6.00;;;;;;;-128.00;-1.00;-1.00;97823;294;1003217;-32
2023/04/29 06:16:01;;;;;;;10.70;6.00;;;;;;;-128.00;-1.00;-1.00;97895;294;1003001;-34
2023/04/29 06:18:27;;;;;;;7.30;5.00;;;;;;;-128.00;-1.00;-1.00;97930;294;1003268;-33
2023/04/29 06:20:53;;;;;;;26.20;5.50;;;;;;;-128.00;-1.00;-1.00;97959;294;1003722;-33
2023/04/29 06:23:18;;;;;;;10.60;6.60;;;;;;;-128.00;-1.00;-1.00;97798;294;1002815;-33
2023/04/29 06:25:44;;;;;;;9.50;5.40;;;;;;;-128.00;-1.00;-1.00;98011;283;1003031;-29
2023/04/29 06:28:09;;;;;;;9.00;4.80;;;;;;;-128.00;-1.00;-1.00;97861;294;1002799;-34
2023/04/29 06:30:35;;;;;;;12.40;6.10;;;;;;;-128.00;-1.00;-1.00;97857;283;1004510;-33
2023/04/29 06:33:00;;;;;;;8.00;6.20;;;;;;;-128.00;-1.00;-1.00;97898;294;1003095;-35
2023/04/29 06:35:26;;;;;;;10.90;6.40;;;;;;;-128.00;-1.00;-1.00;97895;294;1002764;-33
2023/04/29 06:37:52;;;;;;;8.10;5.20;;;;;;;-128.00;-1.00;-1.00;97802;294;1003776;-33
2023/04/29 06:40:17;;;;;;;9.20;6.10;;;;;;;-128.00;-1.00;-1.00;97842;283;1003312;-29
2023/04/29 06:42:43;;;;;;;10.70;6.20;;;;;;;-128.00;-1.00;-1.00;97910;287;1003401;-37
2023/04/29 06:45:09;;;;;;;5.80;5.20;;;;;;;-128.00;-1.00;-1.00;98054;294;1005071;-36
2023/04/29 06:47:35;;;;;;;8.50;5.50;;;;;;;-128.00;-1.00;-1.00;97891;283;1003351;-33
2023/04/29 06:50:00;;;;;;;9.30;5.10;;;;;;;-128.00;-1.00;-1.00;97885;294;1003119;-33
2023/04/29 06:52:26;;;;;;;11.80;6.70;;;;;;;-128.00;-1.00;-1.00;97754;294;1003242;-29
2023/04/29 06:54:52;;;;;;;11.80;6.00;;;;;;;-128.00;-1.00;-1.00;97881;294;1004125;-33
2023/04/29 06:57:17;;;;;;;8.30;5.60;;;;;;;-128.00;-1.00;-1.00;97845;294;1002466;-33
2023/04/29 06:59:43;;;;;;;13.40;4.90;;;;;;;-128.00;-1.00;-1.00;98063;283;1003569;-29
2023/04/29 07:02:09;;;;;;;14.10;5.40;;;;;;;-128.00;-1.00;-1.00;97894;294;1002615;-32
2023/04/29 07:04:36;;;;;;;9.10;4.80;;;;;;;-128.00;-1.00;-1.00;97825;294;1003544;-29
2023/04/29 07:07:02;;;;;;;9.10;5.30;;;;;;;-128.00;-1.00;-1.00;97915;294;1003083;-38
2023/04/29 07:09:28;;;;;;;11.00;6.60;;;;;;;-128.00;-1.00;-1.00;97920;294;1003229;-36
2023/04/29 07:11:54;;;;;;;11.80;6.60;;;;;;;-128.00;-1.00;-1.00;97937;294;1003536;-30
2023/04/29 07:14:21;;;;;;;7.40;4.80;;;;;;;-128.00;-1.00;-1.00;97983;294;1004024;-29
2023/04/29 07:16:47;;;;;;;14.20;6.20;;;;;;;-128.00;-1.00;-1.00;97912;294;1002884;-33
2023/04/29 07:19:12;;;;;;;8.30;5.60;;;;;;;-128.00;-1.00;-1.00;97764;294;1003746;-33
2023/04/29 07:21:39;;;;;;;10.30;5.30;;;;;;;-128.00;-1.00;-1.00;97931;294;1004837;-30
2023/04/29 07:24:05;;;;;;;12.80;6.20;;;;;;;-128.00;-1.00;-1.00;98075;294;1004604;-30
2023/04/29 07:26:31;;;;;;;6.70;4.90;;;;;;;-128.00;-1.00;-1.00;97930;294;1003009;-34
2023/04/29 07:28:56;;;;;;;9.90;5.30;;;;;;;-128.00;-1.00;-1.00;97901;294;1003006;-34
2023/04/29 07:31:22;;;;;;;8.30;5.60;;;;;;;-128.00;-1.00;-1.00;98016;294;1003300;-30
2023/04/29 07:33:48;;;;;;;9.10;5.20;;;;;;;-128.00;-1.00;-1.00;97924;294;1002895;-34
2023/04/29 07:36:13;;;;;;;14.30;5.00;;;;;;;-128.00;-1.00;-1.00;97903;294;1004215;-31
2023/04/29 07:38:39;;;;;;;7.90;5.10;;;;;;;-128.00;-1.00;-1.00;97920;294;1003044;-34
2023/04/29 07:41:05;;;;;;;6.40;4.30;;;;;;;-128.00;-1.00;-1.00;97881;294;1005418;-31
2023/04/29 07:43:30;;;;;;;10.80;5.00;;;;;;;-128.00;-1.00;-1.00;98055;287;1002918;-31
2023/04/29 07:45:56;;;;;;;9.50;5.10;;;;;;;-128.00;-1.00;-1.00;97861;285;1003364;-35
2023/04/29 07:48:22;;;;;;;7.60;5.10;;;;;;;-128.00;-1.00;-1.00;97907;294;1003452;-32
2023/04/29 07:50:47;;;;;;;6.40;4.50;;;;;;;-128.00;-1.00;-1.00;97994;294;1005406;-33
2023/04/29 07:53:14;;;;;;;15.40;5.80;;;;;;;-128.00;-1.00;-1.00;97825;294;1002660;-29
2023/04/29 07:55:40;;;;;;;6.00;5.10;;;;;;;-128.00;-1.00;-1.00;97868;294;1003261;-30
2023/04/29 07:58:06;;;;;;;7.10;5.00;;;;;;;-128.00;-1.00;-1.00;97836;294;1003503;-36
2023/04/29 08:00:32;;;;;;;11.00;5.30;;;;;;;-128.00;-1.00;-1.00;97990;294;1003435;-35
2023/04/29 08:02:57;;;;;;;9.60;4.80;;;;;;;-128.00;-1.00;-1.00;97856;294;1002708;-29
2023/04/29 08:05:23;;;;;;;6.00;3.60;;;;;;;-128.00;-1.00;-1.00;97843;294;1002637;-29
2023/04/29 08:07:49;;;;;;;6.00;3.80;;;;;;;-128.00;-1.00;-1.00;97852;294;1003457;-33
2023/04/29 08:10:16;;;;;;;5.90;3.60;;;;;;;-128.00;-1.00;-1.00;98046;294;1004772;-30
2023/04/29 08:12:45;;;;;;;6.40;3.90;;;;;;;-128.00;-1.00;-1.00;97983;294;1004338;-34
2023/04/29 08:15:11;;;;;;;6.60;4.80;;;;;;;-128.00;-1.00;-1.00;97909;294;1003433;-34
2023/04/29 08:17:36;;;;;;;9.00;4.30;;;;;;;-128.00;-1.00;-1.00;97841;294;1003482;-34
2023/04/29 08:20:03;;;;;;;3.80;3.10;;;;;;;-128.00;-1.00;-1.00;97887;294;1004052;-30
2023/04/29 08:22:29;;;;;;;4.90;3.60;;;;;;;-128.00;-1.00;-1.00;97936;294;1004648;-34
2023/04/29 08:24:56;;;;;;;4.70;2.90;;;;;;;-128.00;-1.00;-1.00;97888;294;1003765;-31
2023/04/29 08:27:22;;;;;;;6.50;4.40;;;;;;;-128.00;-1.00;-1.00;97971;294;1003234;-34
2023/04/29 08:29:47;;;;;;;6.00;5.40;;;;;;;-128.00;-1.00;-1.00;97909;294;1003179;-31
2023/04/29 08:32:13;;;;;;;12.60;4.30;;;;;;;-128.00;-1.00;-1.00;97941;294;1004666;-29
2023/04/29 08:34:40;;;;;;;11.70;4.30;;;;;;;-128.00;-1.00;-1.00;97873;294;1004132;-30
2023/04/29 08:37:06;;;;;;;9.70;4.90;;;;;;;-128.00;-1.00;-1.00;97914;295;1002683;-32
2023/04/29 08:39:32;;;;;;;6.60;4.30;;;;;;;-128.00;-1.00;-1.00;97943;294;1002824;-31
2023/04/29 08:41:57;;;;;;;11.10;4.90;;;;;;;-128.00;-1.00;-1.00;97846;294;1004320;-35
2023/04/29 08:44:25;;;;;;;8.50;5.10;;;;;;;-128.00;-1.00;-1.00;97834;294;1003350;-31
2023/04/29 08:46:51;;;;;;;4.80;2.90;;;;;;;-128.00;-1.00;-1.00;97937;294;1003767;-30
2023/04/29 08:49:17;;;;;;;6.20;4.20;;;;;;;-128.00;-1.00;-1.00;98037;294;1005115;-30
2023/04/29 08:51:44;;;;;;;11.90;5.60;;;;;;;-128.00;-1.00;-1.00;97833;294;1002997;-30
2023/04/29 08:54:10;;;;;;;6.00;4.40;;;;;;;-128.00;-1.00;-1.00;97871;294;1003284;-31
2023/04/29 08:56:35;;;;;;;8.80;4.40;;;;;;;-128.00;-1.00;-1.00;97865;294;1003804;-29
2023/04/29 08:59:01;;;;;;;7.90;4.60;;;;;;;-128.00;-1.00;-1.00;97775;294;1003409;-34
2023/04/29 09:01:27;;;;;;;6.60;4.90;;;;;;;-128.00;-1.00;-1.00;97838;283;1003486;-30
2023/04/29 09:04:00;;;;;;;4.20;3.30;;;;;;;-128.00;-1.00;-1.00;97849;294;1003959;-34
2023/04/29 09:06:26;;;;;;;3.80;2.90;;;;;;;-128.00;-1.00;-1.00;95047;294;1432146;-29
2023/04/29 09:08:51;;;;;;;3.50;2.40;;;;;;;-128.00;-1.00;-1.00;97820;294;1003103;-33
2023/04/29 09:11:18;;;;;;;5.20;3.70;;;;;;;-128.00;-1.00;-1.00;81708;285;7503408;-36
2023/04/29 09:13:44;;;;;;;6.70;3.40;;;;;;;-128.00;-1.00;-1.00;96943;294;1140751;-31
2023/04/29 09:16:11;;;;;;;6.30;3.30;;;;;;;-128.00;-1.00;-1.00;94507;296;3003194;-34
2023/04/29 09:18:49;;;;;;;6.10;4.40;;;;;;;-128.00;-1.00;-1.00;97948;287;1003637;-34
2023/04/29 09:21:19;;;;;;;9.90;6.10;;;;;;;-128.00;-1.00;-1.00;98079;294;1003277;-30
2023/04/29 09:23:46;;;;;;;37.70;13.80;;;;;;;-128.00;-1.00;-1.00;97844;294;1002923;-30
2023/04/29 09:26:13;;;;;;;49.60;14.00;;;;;;;-128.00;-1.00;-1.00;96954;294;1003977;-30
2023/04/29 09:28:40;;;;;;;26.70;11.60;;;;;;;-128.00;-1.00;-1.00;97947;294;1003236;-30
2023/04/29 09:31:07;;;;;;;13.90;6.90;;;;;;;-128.00;-1.00;-1.00;98081;294;1002984;-33
2023/04/29 09:33:51;;;;;;;9.60;5.30;;;;;;;-128.00;-1.00;-1.00;97900;296;1003239;-31
2023/04/29 09:36:37;;;;;;;7.10;4.80;;;;;;;-128.00;-1.00;-1.00;98003;294;1004447;-29
2023/04/29 09:39:10;;;;;;;7.20;4.10;;;;;;;-128.00;-1.00;-1.00;91837;294;7503703;-29
2023/04/29 09:41:41;;;;;;;10.40;5.40;;;;;;;-128.00;-1.00;-1.00;97962;294;1003579;-29
2023/04/29 09:44:07;;;;;;;5.30;3.50;;;;;;;-128.00;-1.00;-1.00;97700;294;1019472;-34
2023/04/29 09:46:33;;;;;;;5.30;3.60;;;;;;;-128.00;-1.00;-1.00;98015;294;1003243;-30
2023/04/29 09:48:59;;;;;;;4.70;3.20;;;;;;;-128.00;-1.00;-1.00;88493;294;7503324;-36
2023/04/29 09:51:26;;;;;;;12.30;5.60;;;;;;;-128.00;-1.00;-1.00;33148;296;7504043;-33
2023/04/29 09:53:52;;;;;;;15.10;4.40;;;;;;;-128.00;-1.00;-1.00;18957;302;7504933;-32
2023/04/29 09:56:20;;;;;;;6.30;4.10;;;;;;;-128.00;-1.00;-1.00;18885;346;7504449;-34
2023/04/29 09:58:46;;;;;;;7.10;3.80;;;;;;;-128.00;-1.00;-1.00;18496;295;7505010;-36
2023/04/29 10:01:13;;;;;;;4.60;4.20;;;;;;;-128.00;-1.00;-1.00;18486;295;7505069;-31
2023/04/29 10:03:38;;;;;;;6.60;5.00;;;;;;;-128.00;-1.00;-1.00;18476;294;7504673;-35
2023/04/29 10:06:05;;;;;;;6.00;4.30;;;;;;;-128.00;-1.00;-1.00;18464;294;7504572;-32
2023/04/29 10:08:31;;;;;;;4.70;4.10;;;;;;;-128.00;-1.00;-1.00;18483;346;7506668;-31
2023/04/29 10:10:59;;;;;;;6.50;3.70;;;;;;;-128.00;-1.00;-1.00;18490;296;7506826;-31
2023/04/29 10:13:26;;;;;;;3.60;3.10;;;;;;;-128.00;-1.00;-1.00;18477;285;7504547;-35
2023/04/29 10:16:08;;;;;;;4.70;3.30;;;;;;;-128.00;-1.00;-1.00;18488;295;7506189;-35
2023/04/29 10:18:36;;;;;;;9.30;3.80;;;;;;;-128.00;-1.00;-1.00;18642;294;7506136;-35
2023/04/29 10:21:03;;;;;;;8.70;5.10;;;;;;;-128.00;-1.00;-1.00;18483;294;7504725;-31
2023/04/29 10:23:29;;;;;;;5.50;4.20;;;;;;;-128.00;-1.00;-1.00;21843;294;7504043;-34
2023/04/29 10:25:55;;;;;;;5.40;4.70;;;;;;;-128.00;-1.00;-1.00;18470;295;7504684;-31
2023/04/29 10:28:21;;;;;;;8.40;4.50;;;;;;;-128.00;-1.00;-1.00;18889;294;7504755;-35
2023/04/29 10:30:50;;;;;;;7.90;4.50;;;;;;;-128.00;-1.00;-1.00;18874;294;7504240;-32
2023/04/29 10:33:15;;;;;;;6.30;3.60;;;;;;;-128.00;-1.00;-1.00;18594;287;7503972;-32
2023/04/29 10:35:43;;;;;;;7.30;4.90;;;;;;;-128.00;-1.00;-1.00;19335;335;7504103;-36
2023/04/29 10:38:16;;;;;;;6.20;3.90;;;;;;;-128.00;-1.00;-1.00;18474;347;7504612;-35
2023/04/29 10:40:45;;;;;;;9.00;6.00;;;;;;;-128.00;-1.00;-1.00;18481;319;7504563;-31
2023/04/29 10:43:11;;;;;;;8.10;4.60;;;;;;;-128.00;-1.00;-1.00;18917;287;7504163;-32
2023/04/29 10:45:37;;;;;;;8.00;4.40;;;;;;;-128.00;-1.00;-1.00;74054;294;7503990;-35
2023/04/29 10:48:08;;;;;;;5.20;4.10;;;;;;;-128.00;-1.00;-1.00;97902;294;1002616;-31
2023/04/29 10:50:38;;;;;;;5.60;4.00;;;;;;;-128.00;-1.00;-1.00;97982;294;1003139;-31
2023/04/29 10:53:04;;;;;;;8.00;3.90;;;;;;;-128.00;-1.00;-1.00;97929;296;1002793;-34
2023/04/29 10:55:30;;;;;;;8.90;4.70;;;;;;;-128.00;-1.00;-1.00;97028;287;1206002;-35
2023/04/29 10:57:56;;;;;;;6.80;4.70;;;;;;;-128.00;-1.00;-1.00;97880;294;1003643;-30
2023/04/29 11:00:28;;;;;;;5.70;3.90;;;;;;;-128.00;-1.00;-1.00;94166;296;4221791;-35
2023/04/29 11:02:56;;;;;;;16.90;5.70;;;;;;;-128.00;-1.00;-1.00;19579;349;7505987;-35
2023/04/29 11:05:28;;;;;;;7.50;6.30;;;;;;;-128.00;-1.00;-1.00;18487;294;7506218;-35
2023/04/29 11:49:30;;;;;;;8.00;6.70;;;;;;;-99.68;17.25;19799.98;98223;296;1544476;-34
2023/04/29 11:51:56;;;;;;;6.80;4.90;;;;;;;-128.00;-1.00;-1.00;97422;297;1002972;-30
2023/04/29 11:54:24;;;;;;;11.10;6.30;;;;;;;-128.00;-1.00;-1.00;97830;297;1003532;-34
2023/04/29 11:56:53;;;;;;;7.50;6.40;;;;;;;-128.00;-1.00;-1.00;97757;297;1003860;-31
2023/04/29 11:59:18;;;;;;;7.70;5.80;;;;;;;-128.00;-1.00;-1.00;97862;297;1003920;-34
2023/04/29 12:01:44;;;;;;;6.00;5.10;;;;;;;-128.00;-1.00;-1.00;97864;297;1004167;-37
2023/04/29 12:04:10;;;;;;;10.00;5.70;;;;;;;-128.00;-1.00;-1.00;97892;297;1003564;-35
2023/04/29 12:06:36;;;;;;;11.10;5.50;;;;;;;-128.00;-1.00;-1.00;97743;297;1003936;-31
2023/04/29 12:09:03;;;;;;;19.40;8.30;;;;;;;-128.00;-1.00;-1.00;97835;297;1003575;-30
2023/04/29 12:11:29;;;;;;;8.10;7.30;;;;;;;-128.00;-1.00;-1.00;97833;297;1003491;-31
2023/04/29 12:13:56;;;;;;;9.60;7.60;;;;;;;-128.00;-1.00;-1.00;97883;297;1004407;-29
2023/04/29 12:16:22;;;;;;;10.80;7.90;;;;;;;-128.00;-1.00;-1.00;97747;297;1005460;-33
2023/04/29 12:18:50;;;;;;;10.50;7.10;;;;;;;-128.00;-1.00;-1.00;97834;298;1003130;-37
2023/04/29 12:21:16;;;;;;;9.10;5.90;;;;;;;-128.00;-1.00;-1.00;97636;288;1003332;-31
2023/04/29 12:23:42;;;;;;;8.10;5.70;;;;;;;-128.00;-1.00;-1.00;97866;297;1003669;-30
2023/04/29 12:26:07;;;;;;;6.70;6.00;;;;;;;-128.00;-1.00;-1.00;89839;297;5974763;-35
2023/04/29 12:28:33;;;;;;;10.90;6.50;;;;;;;-128.00;-1.00;-1.00;97543;288;1004119;-35
2023/04/29 12:31:00;;;;;;;8.80;6.80;;;;;;;-128.00;-1.00;-1.00;96024;297;2522915;-36
2023/04/29 12:33:27;;;;;;;8.00;6.80;;;;;;;-128.00;-1.00;-1.00;97801;297;1003729;-36
2023/04/29 12:35:55;;;;;;;17.90;12.80;;;;;;;-128.00;-1.00;-1.00;65684;298;7504410;-32
2023/04/29 12:38:22;;;;;;;12.20;7.70;;;;;;;-128.00;-1.00;-1.00;19220;298;7505779;-36
2023/04/29 12:40:49;;;;;;;23.40;15.10;;;;;;;-128.00;-1.00;-1.00;18476;299;7505063;-32
2023/04/29 12:43:15;;;;;;;9.40;5.60;;;;;;;-128.00;-1.00;-1.00;18454;297;7504527;-36
2023/04/29 12:45:41;;;;;;;6.30;3.80;;;;;;;-128.00;-1.00;-1.00;46062;298;7504149;-32